Time;durP1;ratioP1;P1;durP2;ratioP2;P2;SDS_P1;SDS_P2;PMS_P1;PMS_P2;Temp;Humidity;BMP_temperature;BMP_pressure;BME280_temperature;BME280_humidity;BME280_pressure;Samples;Min_cycle;Max_cycle;Signal;HPM_P1;HPM_P2
2022/11/24 00:00:26;;;;;;;;;5.67;4.00;;;;;11.90;67.09;100148.59;2101977;27;46498;-57
2022/11/24 00:01:29;;;;;;;;;7.00;5.50;;;;;11.91;67.08;100151.19;2105761;27;46755;-60
2022/11/24 00:02:29;;;;;;;;;7.25;5.50;;;;;11.90;66.83;100138.84;2102848;27;45076;-57
2022/11/24 00:03:30;;;;;;;;;6.50;6.50;;;;;11.91;66.92;100150.34;2101759;27;46927;-59
2022/11/24 00:04:30;;;;;;;;;8.50;5.00;;;;;11.90;67.00;100146.81;2104601;27;46580;-59
2022/11/24 00:05:37;;;;;;;;;10.25;7.75;;;;;11.92;67.02;100146.75;2111598;27;46498;-59
2022/11/24 00:06:37;;;;;;;;;11.20;10.40;;;;;11.91;67.13;100143.22;2110487;27;46251;-58
2022/11/24 00:07:38;;;;;;;;;9.25;8.50;;;;;11.93;67.07;100145.81;2104958;27;46460;-58
2022/11/24 00:08:40;;;;;;;;;9.75;6.50;;;;;11.93;67.00;100145.81;2105420;27;46322;-59
2022/11/24 00:09:41;;;;;;;;;6.75;5.25;;;;;11.93;66.97;100149.34;2114142;27;47091;-58
2022/11/24 00:10:41;;;;;;;;;8.00;5.67;;;;;11.93;67.24;100145.81;2105735;27;47062;-57
2022/11/24 00:11:41;;;;;;;;;6.33;5.00;;;;;11.93;67.26;100145.81;2112961;27;46203;-59
2022/11/24 00:12:42;;;;;;;;;6.00;5.50;;;;;11.92;67.01;100144.97;2105814;27;46863;-59
2022/11/24 00:13:42;;;;;;;;;7.00;4.00;;;;;11.93;67.25;100149.34;2104264;27;47012;-57
2022/11/24 00:14:43;;;;;;;;;6.00;5.67;;;;;11.93;67.23;100146.69;2105194;27;45617;-59
2022/11/24 00:15:44;;;;;;;;;6.67;3.33;;;;;11.93;67.04;100144.03;2106286;27;45626;-58
2022/11/24 00:16:44;;;;;;;;;5.33;3.67;;;;;11.94;67.05;100155.53;2111250;27;46200;-59
2022/11/24 00:17:44;;;;;;;;;7.67;5.00;;;;;11.95;66.98;100152.84;2095645;28;46631;-58
2022/11/24 00:18:47;;;;;;;;;6.00;4.33;;;;;11.95;66.98;100158.16;2105276;27;47044;-59
2022/11/24 00:19:47;;;;;;;;;7.75;6.00;;;;;11.94;67.17;100167.06;2109518;27;47843;-57
2022/11/24 00:20:51;;;;;;;;;5.33;4.67;;;;;11.96;67.27;100161.69;2107914;27;47197;-59
2022/11/24 00:21:52;;;;;;;;;5.25;5.25;;;;;11.96;67.06;100157.25;2101196;27;46271;-58
2022/11/24 00:22:52;;;;;;;;;4.00;4.00;;;;;11.97;67.04;100168.75;2102924;27;46726;-59
2022/11/24 00:23:53;;;;;;;;;5.00;3.00;;;;;11.96;67.10;100165.22;2098119;27;46761;-60
2022/11/24 00:24:53;;;;;;;;;7.00;5.00;;;;;11.97;67.03;100164.28;2103144;27;46550;-57
2022/11/24 00:25:54;;;;;;;;;3.00;3.00;;;;;11.97;67.08;100160.75;2097729;27;46573;-58
2022/11/24 00:26:54;;;;;;;;;6.00;3.67;;;;;11.98;67.18;100152.72;2107121;27;46082;-58
2022/11/24 00:27:54;;;;;;;;;7.67;6.00;;;;;11.98;67.12;100155.38;2097524;27;46885;-60
2022/11/24 00:28:59;;;;;;;;;6.00;4.67;;;;;12.01;67.39;100151.75;2103706;27;45646;-57
2022/11/24 00:30:00;;;;;;;;;5.33;4.00;;;;;12.03;67.05;100152.56;2101145;27;46208;-60
2022/11/24 00:31:01;;;;;;;;;4.33;3.33;;;;;12.04;67.14;100138.31;2103171;27;46455;-58
2022/11/24 00:32:04;;;;;;;;;6.50;6.50;;;;;12.06;67.00;100139.13;2097519;27;46558;-60
2022/11/24 00:33:05;;;;;;;;;6.25;5.50;;;;;12.07;67.02;100152.41;2109955;27;46741;-58
2022/11/24 00:34:11;;;;;;;;;5.33;4.33;;;;;12.10;66.97;100142.56;2103311;27;47027;-60
2022/11/24 00:35:11;;;;;;;;;8.25;6.00;;;;;12.11;66.94;100141.63;2106917;27;46329;-60
2022/11/24 00:36:12;;;;;;;;;6.00;4.00;;;;;12.13;66.97;100142.44;2100381;27;46460;-59
2022/11/24 00:37:12;;;;;;;;;6.67;4.00;;;;;12.13;67.29;100132.66;2101264;27;46711;-59
2022/11/24 00:38:12;;;;;;;;;5.67;5.67;;;;;12.16;67.03;100123.72;2101634;27;46914;-57
2022/11/24 00:39:14;;;;;;;;;5.67;5.00;;;;;12.15;66.97;100132.63;2102601;27;46344;-57
2022/11/24 00:40:15;;;;;;;;;8.25;5.25;;;;;12.15;66.88;100136.13;2103572;27;46704;-58
2022/11/24 00:41:15;;;;;;;;;4.67;3.00;;;;;12.15;66.76;100124.63;2106262;27;45982;-59
2022/11/24 00:42:15;;;;;;;;;2.00;2.00;;;;;12.16;66.63;100126.38;2081277;28;46280;-59
2022/11/24 00:43:16;;;;;;;;;7.00;5.33;;;;;12.16;66.91;100121.03;2084538;28;46658;-59
2022/11/24 00:44:16;;;;;;;;;4.00;4.00;;;;;12.16;66.83;100121.03;2099910;27;47299;-59
2022/11/24 00:45:17;;;;;;;;;4.00;2.67;;;;;12.17;66.80;100118.31;2100224;28;45917;-58
2022/11/24 00:46:18;;;;;;;;;7.00;5.00;;;;;12.16;66.69;100111.28;2092418;28;46335;-60
2022/11/24 00:47:18;;;;;;;;;2.50;2.50;;;;;12.16;66.88;100108.63;2104715;27;46517;-59
2022/11/24 00:48:19;;;;;;;;;6.33;6.00;;;;;12.16;66.61;100103.28;2103885;27;46562;-61
2022/11/24 00:49:19;;;;;;;;;3.67;3.33;;;;;12.18;66.50;100116.53;2103653;27;46438;-57
2022/11/24 00:50:20;;;;;;;;;5.33;3.00;;;;;12.17;66.49;100128.97;2101172;27;46159;-61
2022/11/24 00:51:22;;;;;;;;;4.33;3.00;;;;;12.17;66.51;100122.78;2102734;27;47391;-62
2022/11/24 00:52:43;;;;;;;;;3.75;2.75;;;;;12.19;66.41;100126.25;2105457;27;46301;-60
2022/11/24 00:53:43;;;;;;;;;2.00;1.50;;;;;12.16;66.26;100123.72;2086519;28;46407;-59
2022/11/24 00:54:44;;;;;;;;;5.33;5.33;;;;;12.16;66.33;100121.03;2096229;28;47237;-60
2022/11/24 00:55:48;;;;;;;;;3.00;2.00;;;;;12.16;66.36;100111.28;2090936;27;47684;-59
2022/11/24 00:56:48;;;;;;;;;5.50;2.50;;;;;12.17;66.27;100106.81;2096007;28;46264;-59
2022/11/24 00:57:49;;;;;;;;;4.00;3.00;;;;;12.17;66.35;100098.84;2103910;28;45739;-60
2022/11/24 00:58:49;;;;;;;;;3.00;2.33;;;;;12.17;66.32;100101.50;2097099;28;46635;-60
2022/11/24 00:59:49;;;;;;;;;4.00;3.00;;;;;12.18;66.42;100089.94;2095993;28;46508;-59
2022/11/24 01:00:50;;;;;;;;;4.00;3.00;;;;;12.18;66.47;100088.13;2087745;28;46472;-60
2022/11/24 01:01:51;;;;;;;;;4.33;3.00;;;;;12.20;66.42;100106.72;2086820;28;46397;-57
2022/11/24 01:02:51;;;;;;;;;5.00;3.33;;;;;12.23;66.13;100109.25;2098606;28;46980;-59
2022/11/24 01:03:53;;;;;;;;;3.67;3.67;;;;;12.22;66.29;100112.84;2093954;28;46531;-57
2022/11/24 01:04:53;;;;;;;;;3.75;2.50;;;;;12.22;66.02;100124.34;2086107;28;46552;-58
2022/11/24 01:05:54;;;;;;;;;3.33;2.00;;;;;12.22;65.72;100126.16;2092638;28;46504;-58
2022/11/24 01:06:54;;;;;;;;;2.33;2.33;;;;;12.21;65.52;100129.75;2093594;28;46681;-59
2022/11/24 01:07:54;;;;;;;;;3.00;3.00;;;;;12.20;65.38;100117.38;2088053;28;45653;-60
2022/11/24 01:08:56;;;;;;;;;3.67;3.00;;;;;12.20;65.46;100120.03;2092959;28;46204;-60
2022/11/24 01:09:56;;;;;;;;;2.50;2.50;;;;;12.20;65.38;100136.00;2091288;28;46461;-58
2022/11/24 01:11:18;;;;;;;;;3.00;2.00;;;;;12.19;65.20;100150.19;2090658;28;46913;-59
2022/11/24 01:12:18;;;;;;;;;2.75;2.00;;;;;12.18;65.07;100143.13;2093219;28;46514;-63
2022/11/24 01:13:19;;;;;;;;;1.00;1.00;;;;;12.18;64.80;100159.09;2095664;28;45459;-60
2022/11/24 01:14:21;;;;;;;;;1.33;1.33;;;;;12.18;64.89;100148.44;2095176;28;46768;-58
2022/11/24 01:15:21;;;;;;;;;1.00;1.00;;;;;12.16;65.08;100134.34;2092515;28;46731;-57
2022/11/24 01:16:30;;;;;;;;;3.67;2.00;;;;;12.16;65.02;100139.66;2089114;28;46783;-59
2022/11/24 01:17:30;;;;;;;;;2.50;1.25;;;;;12.14;64.87;100141.53;2087005;28;46949;-60
2022/11/24 01:18:30;;;;;;;;;0.00;0.00;;;;;12.13;64.90;100147.78;2095107;28;46629;-59
2022/11/24 01:19:31;;;;;;;;;1.67;1.00;;;;;12.11;64.75;100150.50;2093325;28;46655;-59
2022/11/24 01:20:31;;;;;;;;;1.00;1.00;;;;;12.11;64.64;100154.94;2090456;28;46650;-59
2022/11/24 01:21:31;;;;;;;;;3.00;1.00;;;;;12.10;64.68;100163.84;2082962;28;45830;-60
2022/11/24 01:22:33;;;;;;;;;0.00;0.00;;;;;12.08;64.58;100155.94;2079390;28;46441;-59
2022/11/24 01:23:33;;;;;;;;;1.50;1.50;;;;;12.06;64.44;100166.59;2092941;28;46779;-60
2022/11/24 01:24:34;;;;;;;;;2.67;1.33;;;;;12.05;64.49;100170.19;2090423;28;46325;-60
2022/11/24 01:25:38;;;;;;;;;1.67;1.67;;;;;12.05;64.45;100172.84;2095127;28;46463;-59
2022/11/24 01:26:38;;;;;;;;;3.25;3.25;;;;;12.04;64.39;100168.44;2104750;28;46571;-60
2022/11/24 01:27:39;;;;;;;;;1.00;1.00;;;;;12.04;64.63;100165.78;2099983;28;46311;-60
2022/11/24 01:28:40;;;;;;;;;1.00;1.00;;;;;12.03;64.30;100172.03;2096433;28;46825;-58
2022/11/24 01:29:40;;;;;;;;;1.00;1.00;;;;;12.02;64.21;100175.63;2103725;28;46627;-58
2022/11/24 01:30:40;;;;;;;;;2.00;2.00;;;;;12.02;64.23;100172.09;2104463;28;46839;-59
2022/11/24 01:31:41;;;;;;;;;2.67;2.33;;;;;12.02;64.03;100178.28;2105225;28;46675;-58
2022/11/24 01:32:41;;;;;;;;;1.00;0.00;;;;;12.01;63.89;100181.88;2099581;28;46800;-59
2022/11/24 01:33:42;;;;;;;;;2.33;0.00;;;;;12.02;64.28;100182.72;2104058;28;46226;-59
2022/11/24 01:34:42;;;;;;;;;0.00;0.00;;;;;12.00;64.25;100182.78;2100168;28;46441;-60
2022/11/24 01:35:42;;;;;;;;;1.00;1.00;;;;;11.99;64.16;100190.81;2083378;28;46039;-61
2022/11/24 01:36:42;;;;;;;;;0.00;0.00;;;;;12.00;64.13;100180.13;2079481;28;46431;-57
2022/11/24 01:37:43;;;;;;;;;4.00;1.00;;;;;12.00;64.15;100173.94;2102145;28;46798;-59
2022/11/24 01:38:43;;;;;;;;;1.67;1.67;;;;;11.99;64.01;100164.22;2104835;28;46165;-59
2022/11/24 01:39:43;;;;;;;;;0.00;0.00;;;;;11.98;63.81;100168.69;2098985;28;46469;-58
2022/11/24 01:40:44;;;;;;;;;2.67;1.00;;;;;11.97;63.88;100171.41;2101416;28;45767;-58
2022/11/24 01:41:44;;;;;;;;;1.00;1.00;;;;;11.96;64.05;100178.50;2098232;28;45834;-58
2022/11/24 01:42:48;;;;;;;;;0.00;0.00;;;;;11.95;63.68;100171.47;2104507;28;46678;-61
2022/11/24 01:43:50;;;;;;;;;2.00;0.00;;;;;11.93;63.67;100185.72;2101948;28;46658;-58
2022/11/24 01:45:26;;;;;;;;;0.25;0.25;;;;;11.90;63.56;100178.72;2102712;28;46353;-60
2022/11/24 01:46:32;;;;;;;;;1.00;1.00;;;;;11.89;63.71;100194.72;2103360;28;46414;-59
2022/11/24 01:47:37;;;;;;;;;1.75;1.75;;;;;11.87;63.58;100197.44;2095700;28;46628;-59
2022/11/24 01:48:43;;;;;;;;;1.00;1.00;;;;;11.87;63.57;100201.91;2093585;28;46766;-60
2022/11/24 01:49:47;;;;;;;;;1.00;1.00;;;;;11.86;63.76;100214.31;2097940;28;46326;-59
2022/11/24 01:50:54;;;;;;;;;1.75;0.50;;;;;11.85;63.88;100204.63;2104733;28;46869;-59
2022/11/24 01:52:02;;;;;;;;;1.75;1.00;;;;;11.85;63.59;100207.28;2104583;28;45323;-59
2022/11/24 01:53:03;;;;;;;;;0.00;0.00;;;;;11.85;63.36;100201.09;2104003;28;46733;-57
2022/11/24 01:54:09;;;;;;;;;0.50;0.00;;;;;11.84;63.33;100207.31;2104890;28;46031;-59
2022/11/24 01:55:21;;;;;;;;;2.00;0.00;;;;;11.86;63.69;100210.78;2103501;28;45159;-59
2022/11/24 01:56:22;;;;;;;;;2.50;1.00;;;;;11.85;63.56;100203.75;2103833;28;46559;-58
2022/11/24 01:57:25;;;;;;;;;0.00;0.00;;;;;11.86;63.28;100210.78;2096236;28;46738;-58
2022/11/24 01:58:29;;;;;;;;;0.50;0.50;;;;;11.86;63.57;100221.44;2103240;28;46702;-58
2022/11/24 01:59:30;;;;;;;;;1.25;0.00;;;;;11.86;63.61;100216.97;2104673;28;46682;-59
2022/11/24 02:00:32;;;;;;;;;1.00;0.00;;;;;11.85;63.46;100227.66;2097993;28;46437;-58
2022/11/24 02:01:33;;;;;;;;;1.00;0.75;;;;;11.85;63.57;100222.34;2101223;28;46935;-58
2022/11/24 02:02:34;;;;;;;;;1.00;0.00;;;;;11.85;63.90;100233.00;2097615;28;46723;-58
2022/11/24 02:03:39;;;;;;;;;2.00;0.00;;;;;11.83;63.84;100237.50;2104488;28;46279;-58
2022/11/24 02:04:40;;;;;;;;;1.25;1.25;;;;;11.83;63.95;100233.03;2104646;28;46950;-59
2022/11/24 02:05:43;;;;;;;;;1.75;0.50;;;;;11.83;63.98;100243.69;2097285;28;46372;-57
2022/11/24 02:06:46;;;;;;;;;0.25;0.25;;;;;11.82;63.93;100241.94;2102499;28;46721;-59
2022/11/24 02:07:47;;;;;;;;;1.50;0.50;;;;;11.83;63.99;100243.69;2100613;27;46955;-58
2022/11/24 02:08:58;;;;;;;;;1.00;1.00;;;;;11.84;64.14;100249.88;2099117;28;46301;-58
2022/11/24 02:10:02;;;;;;;;;0.00;0.00;;;;;11.82;64.25;100244.59;2101894;27;46482;-59
2022/11/24 02:11:04;;;;;;;;;1.00;0.50;;;;;11.83;64.35;100245.47;2100833;27;46854;-58
2022/11/24 02:12:05;;;;;;;;;0.50;0.25;;;;;11.83;64.23;100254.31;2103061;27;47127;-60
2022/11/24 02:13:05;;;;;;;;;3.25;0.00;;;;;11.84;64.30;100258.72;2105778;27;46700;-59
2022/11/24 02:14:09;;;;;;;;;0.00;0.00;;;;;11.84;64.06;100255.19;2103017;27;46566;-60
2022/11/24 02:15:10;;;;;;;;;0.25;0.00;;;;;11.84;64.25;100252.53;2104232;27;45145;-59
2022/11/24 02:16:11;;;;;;;;;0.00;0.00;;;;;11.82;64.30;100252.59;2104933;28;46201;-58
2022/11/24 02:17:11;;;;;;;;;0.00;0.00;;;;;11.83;64.31;100264.94;2099112;27;46881;-59
2022/11/24 02:18:12;;;;;;;;;1.00;1.00;;;;;11.84;64.39;100261.38;2104829;27;45728;-60
2022/11/24 02:19:40;;;;;;;;;1.00;1.00;;;;;11.86;64.49;100270.16;2097310;27;46461;-61
2022/11/24 02:20:40;;;;;;;;;2.75;0.00;;;;;11.86;64.61;100266.63;2062001;28;46489;-60
2022/11/24 02:21:41;;;;;;;;;1.00;1.00;;;;;11.84;64.54;100284.44;2055951;28;46295;-58
2022/11/24 02:23:10;;;;;;;;;2.00;1.67;;;;;11.83;64.87;100274.72;2054855;28;46148;-58
2022/11/24 02:24:40;;;;;;;;;2.00;1.00;;;;;11.81;64.50;100287.16;2064529;28;46964;-60
2022/11/24 02:25:52;;;;;;;;;0.00;0.00;;;;;11.77;64.65;100279.28;2045055;28;46620;-59
2022/11/24 02:26:52;;;;;;;;;1.00;0.50;;;;;11.76;64.58;100279.31;2046049;28;45600;-58
2022/11/24 02:27:55;;;;;;;;;0.33;0.33;;;;;11.75;64.70;100277.59;2045713;28;46360;-57
2022/11/24 02:28:55;;;;;;;;;1.00;1.00;;;;;11.74;64.69;100284.69;2045938;28;46167;-59
2022/11/24 02:29:56;;;;;;;;;0.33;0.33;;;;;11.74;64.99;100286.47;2048242;28;47063;-59
2022/11/24 02:30:59;;;;;;;;;2.00;0.00;;;;;11.74;64.90;100282.03;2045522;28;46199;-59
2022/11/24 02:32:03;;;;;;;;;0.00;0.00;;;;;11.74;64.92;100287.34;2046051;28;46743;-60
2022/11/24 02:33:03;;;;;;;;;0.75;0.75;;;;;11.76;65.03;100292.63;2046004;28;46358;-60
2022/11/24 02:34:04;;;;;;;;;1.67;1.67;;;;;11.75;65.13;100293.53;2039095;28;46410;-59
2022/11/24 02:35:06;;;;;;;;;1.00;0.00;;;;;11.73;65.23;100296.25;2028067;29;46157;-59
2022/11/24 02:36:06;;;;;;;;;2.00;1.00;;;;;11.72;65.07;100296.31;2025765;28;47566;-60
2022/11/24 02:37:07;;;;;;;;;0.00;0.00;;;;;11.71;65.17;100298.09;2044872;28;46289;-59
2022/11/24 02:38:13;;;;;;;;;2.00;1.33;;;;;11.71;65.36;100303.41;2047640;28;46998;-59
2022/11/24 02:39:14;;;;;;;;;0.75;0.50;;;;;11.71;65.29;100307.84;2043404;28;46581;-57
2022/11/24 02:40:15;;;;;;;;;0.25;0.25;;;;;11.70;65.43;100303.47;2045795;28;47352;-59
2022/11/24 02:41:20;;;;;;;;;0.75;0.75;;;;;11.70;65.67;100296.34;2046154;28;46418;-59
2022/11/24 02:42:22;;;;;;;;;1.00;0.00;;;;;11.70;65.60;100298.16;2044969;28;46387;-60
2022/11/24 02:43:23;;;;;;;;;1.25;0.75;;;;;11.70;65.68;100308.78;2045750;28;46236;-59
2022/11/24 02:44:29;;;;;;;;;1.00;1.00;;;;;11.69;65.46;100307.91;2045783;28;45571;-59
2022/11/24 02:45:30;;;;;;;;;0.25;0.00;;;;;11.70;65.74;100300.81;2046324;28;46548;-60
2022/11/24 02:46:30;;;;;;;;;0.00;0.00;;;;;11.70;65.64;100307.00;2048762;28;47024;-60
2022/11/24 02:47:31;;;;;;;;;0.00;0.00;;;;;11.69;65.74;100312.38;2046206;28;46911;-61
2022/11/24 02:48:31;;;;;;;;;2.00;2.00;;;;;11.68;65.80;100321.22;2046188;28;46459;-59
2022/11/24 02:49:31;;;;;;;;;1.00;1.00;;;;;11.67;65.84;100307.06;2045800;28;46854;-59
2022/11/24 02:50:32;;;;;;;;;1.33;1.33;;;;;11.67;65.85;100323.00;2045855;28;46757;-58
2022/11/24 02:51:33;;;;;;;;;1.00;1.00;;;;;11.66;65.92;100331.03;2041249;28;46456;-58
2022/11/24 02:52:33;;;;;;;;;1.75;0.75;;;;;11.66;66.00;100331.03;2041077;28;46964;-60
2022/11/24 02:53:34;;;;;;;;;1.33;1.33;;;;;11.65;65.90;100331.97;2046043;28;46646;-59
2022/11/24 02:54:34;;;;;;;;;0.00;0.00;;;;;11.64;66.17;100325.78;2049983;28;46511;-57
2022/11/24 02:55:34;;;;;;;;;1.00;1.00;;;;;11.64;66.17;100322.25;2047493;28;46958;-58
2022/11/24 02:56:35;;;;;;;;;2.00;1.00;;;;;11.63;66.22;100334.69;2046993;28;46747;-60
2022/11/24 02:57:35;;;;;;;;;0.33;0.00;;;;;11.62;66.34;100324.97;2047164;28;46827;-60
2022/11/24 02:58:35;;;;;;;;;0.00;0.00;;;;;11.60;66.39;100332.13;2069543;28;46999;-59
2022/11/24 02:59:36;;;;;;;;;1.00;1.00;;;;;11.61;66.51;100333.84;2078816;28;46147;-58
2022/11/24 03:00:36;;;;;;;;;1.00;1.00;;;;;11.60;66.49;100332.13;2078938;28;46058;-60
2022/11/24 03:01:37;;;;;;;;;0.33;0.33;;;;;11.60;66.52;100340.09;2073970;28;46408;-58
2022/11/24 03:02:37;;;;;;;;;1.33;0.00;;;;;11.61;66.35;100335.66;2078670;28;46561;-60
2022/11/24 03:03:38;;;;;;;;;1.00;1.00;;;;;11.61;66.66;100336.50;2096617;27;46330;-58
2022/11/24 03:04:38;;;;;;;;;2.00;1.00;;;;;11.61;66.50;100333.84;2100801;27;46377;-59
2022/11/24 03:05:39;;;;;;;;;2.00;0.67;;;;;11.60;66.29;100347.19;2107479;27;46335;-61
2022/11/24 03:06:40;;;;;;;;;0.50;0.50;;;;;11.58;66.62;100352.56;2105678;27;46271;-58
2022/11/24 03:07:40;;;;;;;;;3.33;1.33;;;;;11.59;66.37;100361.41;2108186;27;46869;-58
2022/11/24 03:08:40;;;;;;;;;1.67;1.67;;;;;11.58;66.80;100349.03;2105073;27;46610;-60
2022/11/24 03:09:40;;;;;;;;;1.00;1.00;;;;;11.58;66.63;100357.00;2105704;28;46523;-57
2022/11/24 03:10:41;;;;;;;;;2.33;2.00;;;;;11.58;66.51;100357.00;2100664;27;46586;-59
2022/11/24 03:11:41;;;;;;;;;3.33;0.67;;;;;11.56;66.92;100361.47;2104872;27;46290;-60
2022/11/24 03:12:42;;;;;;;;;2.00;2.00;;;;;11.57;67.23;100355.28;2104364;27;46345;-59
2022/11/24 03:13:42;;;;;;;;;1.00;1.00;;;;;11.57;67.07;100365.91;2106273;27;46466;-58
2022/11/24 03:14:42;;;;;;;;;1.00;1.00;;;;;11.55;66.90;100365.94;2112622;27;46226;-59
2022/11/24 03:15:43;;;;;;;;;1.00;1.00;;;;;11.56;66.96;100361.47;2105043;27;46438;-59
2022/11/24 03:16:43;;;;;;;;;0.33;0.33;;;;;11.54;66.98;100365.97;2102457;27;45690;-59
2022/11/24 03:17:43;;;;;;;;;1.00;1.00;;;;;11.53;67.23;100361.59;2105498;27;45949;-59
2022/11/24 03:18:43;;;;;;;;;2.67;1.33;;;;;11.51;67.16;100369.59;2100096;27;46726;-58
2022/11/24 03:19:44;;;;;;;;;3.33;2.67;;;;;11.50;67.34;100373.19;2105073;27;46590;-59
2022/11/24 03:20:44;;;;;;;;;3.00;1.67;;;;;11.52;67.33;100362.50;2099818;27;46991;-58
2022/11/24 03:21:44;;;;;;;;;2.00;2.00;;;;;11.50;66.97;100376.72;2103022;27;46199;-60
2022/11/24 03:22:45;;;;;;;;;1.00;0.00;;;;;11.50;67.46;100367.88;2090434;28;46654;-58
2022/11/24 03:23:45;;;;;;;;;2.00;1.00;;;;;11.50;67.35;100389.13;2096944;28;46627;-57
2022/11/24 03:24:46;;;;;;;;;2.00;1.00;;;;;11.48;67.25;100385.66;2101994;27;46132;-60
2022/11/24 03:25:46;;;;;;;;;1.33;1.00;;;;;11.46;67.45;100376.88;2101947;28;46921;-58
2022/11/24 03:26:46;;;;;;;;;0.67;0.67;;;;;11.45;67.63;100369.81;2105495;27;46434;-59
2022/11/24 03:27:47;;;;;;;;;2.33;1.00;;;;;11.44;67.83;100374.25;2104481;27;46358;-57
2022/11/24 03:28:47;;;;;;;;;1.67;1.67;;;;;11.42;67.69;100367.22;2105350;27;46106;-60
2022/11/24 03:29:47;;;;;;;;;1.00;0.00;;;;;11.42;67.71;100377.84;2105528;27;46451;-58
2022/11/24 03:30:48;;;;;;;;;1.00;1.00;;;;;11.41;67.82;100376.97;2105853;27;46988;-58
2022/11/24 03:31:49;;;;;;;;;3.00;2.00;;;;;11.42;67.73;100383.16;2108801;27;46306;-60
2022/11/24 03:32:52;;;;;;;;;3.33;2.00;;;;;11.41;67.63;100387.63;2105565;27;46187;-58
2022/11/24 03:33:53;;;;;;;;;1.50;1.00;;;;;11.42;67.55;100389.34;2097247;28;46218;-59
2022/11/24 03:34:53;;;;;;;;;2.67;1.33;;;;;11.42;67.44;100375.19;2103534;27;46756;-59
2022/11/24 03:35:53;;;;;;;;;1.33;1.33;;;;;11.41;67.64;100382.31;2104871;27;45674;-57
2022/11/24 03:36:54;;;;;;;;;3.00;3.00;;;;;11.39;67.46;100380.63;2104420;27;45489;-59
2022/11/24 03:37:54;;;;;;;;;1.33;1.33;;;;;11.38;67.75;100387.72;2104836;27;46808;-59
2022/11/24 03:38:54;;;;;;;;;2.00;0.00;;;;;11.37;67.70;100390.41;2087547;28;46859;-59
2022/11/24 03:39:55;;;;;;;;;0.67;0.67;;;;;11.35;68.05;100382.50;2087286;28;46758;-59
2022/11/24 03:40:55;;;;;;;;;4.00;1.00;;;;;11.36;67.97;100378.06;2105538;27;46469;-59
2022/11/24 03:41:55;;;;;;;;;1.00;1.00;;;;;11.34;67.82;100387.88;2100850;27;46201;-59
2022/11/24 03:42:56;;;;;;;;;1.00;1.00;;;;;11.33;67.82;100376.38;2103166;27;46329;-58
2022/11/24 03:43:56;;;;;;;;;1.67;1.33;;;;;11.32;68.21;100379.94;2099931;27;47032;-59
2022/11/24 03:44:56;;;;;;;;;2.00;1.00;;;;;11.32;68.11;100379.94;2102311;27;46567;-59
2022/11/24 03:45:57;;;;;;;;;4.33;3.33;;;;;11.33;68.23;100375.50;2103666;27;45572;-58
2022/11/24 03:46:57;;;;;;;;;3.00;2.00;;;;;11.32;68.19;100384.38;2099726;27;46810;-58
2022/11/24 03:47:57;;;;;;;;;1.67;1.00;;;;;11.31;68.28;100372.03;2106614;27;46713;-59
2022/11/24 03:48:58;;;;;;;;;1.00;1.00;;;;;11.31;68.29;100372.91;2101821;27;46624;-59
2022/11/24 03:49:58;;;;;;;;;2.33;2.00;;;;;11.32;68.29;100366.66;2101419;27;46702;-60
2022/11/24 03:51:00;;;;;;;;;3.00;1.00;;;;;11.33;68.12;100378.16;2105028;27;45102;-60
2022/11/24 03:52:00;;;;;;;;;0.00;0.00;;;;;11.32;68.43;100371.97;2102575;27;46188;-59
2022/11/24 03:53:01;;;;;;;;;2.67;2.00;;;;;11.33;68.48;100376.38;2104290;27;46134;-60
2022/11/24 03:54:01;;;;;;;;;0.00;0.00;;;;;11.34;68.19;100369.28;2103751;27;46634;-60
2022/11/24 03:55:01;;;;;;;;;4.33;2.00;;;;;11.33;68.29;100376.38;2100193;27;46389;-59
2022/11/24 03:56:02;;;;;;;;;2.00;2.00;;;;;11.33;68.57;100383.47;2106277;27;46075;-60
2022/11/24 03:57:03;;;;;;;;;2.00;2.00;;;;;11.32;68.19;100373.75;2103614;27;46593;-58
2022/11/24 03:58:03;;;;;;;;;1.67;0.00;;;;;11.31;68.10;100385.31;2104891;27;46682;-60
2022/11/24 03:59:03;;;;;;;;;1.00;1.00;;;;;11.31;68.12;100394.16;2103767;27;46548;-60
2022/11/24 04:00:05;;;;;;;;;2.00;1.00;;;;;11.30;68.05;100400.34;2103568;27;45719;-59
2022/11/24 04:01:05;;;;;;;;;1.00;1.00;;;;;11.29;68.33;100393.28;2105435;27;47015;-59
2022/11/24 04:02:06;;;;;;;;;2.00;2.00;;;;;11.29;68.23;100401.25;2105057;27;46624;-60
2022/11/24 04:03:06;;;;;;;;;2.00;2.00;;;;;11.29;68.00;100395.09;2105325;27;46580;-61
2022/11/24 04:04:10;;;;;;;;;2.33;1.33;;;;;11.29;68.14;100398.59;2106694;27;46602;-60
2022/11/24 04:05:10;;;;;;;;;1.75;1.25;;;;;11.29;68.06;100389.78;2104747;27;46112;-60
2022/11/24 04:06:10;;;;;;;;;1.67;1.00;;;;;11.28;67.96;100398.66;2105966;27;46203;-59
2022/11/24 04:07:11;;;;;;;;;3.33;1.00;;;;;11.27;68.15;100404.88;2100544;27;46930;-58
2022/11/24 04:08:11;;;;;;;;;2.33;1.00;;;;;11.28;68.22;100404.84;2100663;27;46692;-58
2022/11/24 04:09:12;;;;;;;;;5.00;1.33;;;;;11.29;68.06;100422.50;2105444;27;46959;-60
2022/11/24 04:10:12;;;;;;;;;3.33;1.00;;;;;11.30;68.15;100410.97;2101158;27;46546;-59
2022/11/24 04:12:42;;;;;;;;;5.33;2.67;;;;;11.31;68.29;100418.06;2105258;27;46267;-60
2022/11/24 04:12:45;;;;;;;;;1.25;1.25;;;;;11.31;68.08;100415.41;2102570;27;46414;-59
2022/11/24 04:13:46;;;;;;;;;2.00;1.25;;;;;11.30;68.03;100410.97;2103939;27;46744;-60
2022/11/24 04:14:46;;;;;;;;;3.00;1.75;;;;;11.31;67.95;100414.53;2105153;27;46521;-59
2022/11/24 04:15:47;;;;;;;;;1.33;1.33;;;;;11.30;68.21;100421.59;2104620;27;46590;-59
2022/11/24 04:16:47;;;;;;;;;2.33;1.00;;;;;11.29;67.89;100419.84;2095069;28;46306;-59
2022/11/24 04:17:49;;;;;;;;;3.00;2.00;;;;;11.30;67.97;100420.72;2088076;28;47030;-59
2022/11/24 04:18:52;;;;;;;;;2.25;2.00;;;;;11.30;67.91;100424.25;2100139;27;46623;-60
2022/11/24 04:19:53;;;;;;;;;4.75;1.00;;;;;11.30;68.25;100426.03;2098160;28;46419;-57
2022/11/24 04:20:53;;;;;;;;;3.00;3.00;;;;;11.29;68.21;100427.81;2103712;28;46382;-60
2022/11/24 04:21:53;;;;;;;;;1.67;1.67;;;;;11.29;68.03;100426.97;2106721;27;46981;-57
2022/11/24 04:22:54;;;;;;;;;3.00;1.67;;;;;11.26;68.04;100419.97;2101808;27;46540;-59
2022/11/24 04:23:54;;;;;;;;;2.67;2.67;;;;;11.26;68.14;100430.59;2107976;27;46239;-58
2022/11/24 04:24:54;;;;;;;;;2.00;2.00;;;;;11.26;68.06;100441.22;2104668;27;46868;-59
2022/11/24 04:25:55;;;;;;;;;3.00;1.67;;;;;11.26;68.39;100437.69;2105460;27;46648;-60
2022/11/24 04:26:55;;;;;;;;;1.67;1.67;;;;;11.25;68.01;100430.63;2105138;27;46502;-59
2022/11/24 04:27:56;;;;;;;;;1.00;1.00;;;;;11.24;68.13;100437.72;2104934;28;46262;-59
2022/11/24 04:28:56;;;;;;;;;4.00;2.00;;;;;11.24;68.75;100434.19;2095138;28;46803;-59
2022/11/24 04:29:56;;;;;;;;;1.00;1.00;;;;;11.24;68.40;100439.50;2099929;28;46259;-60
2022/11/24 04:31:01;;;;;;;;;3.00;2.33;;;;;11.24;68.11;100452.78;2102421;28;45754;-59
2022/11/24 04:32:01;;;;;;;;;2.25;2.25;;;;;11.23;68.08;100446.63;2088774;28;46692;-60
2022/11/24 04:33:02;;;;;;;;;1.00;1.00;;;;;11.23;68.50;100437.78;2090190;28;46492;-60
2022/11/24 04:34:02;;;;;;;;;2.00;1.00;;;;;11.23;68.15;100443.09;2099935;28;46447;-60
2022/11/24 04:35:03;;;;;;;;;1.67;1.00;;;;;11.23;68.19;100443.97;2099649;28;46288;-59
2022/11/24 04:36:04;;;;;;;;;3.00;2.00;;;;;11.24;68.37;100458.09;2103486;27;45875;-59
2022/11/24 04:37:04;;;;;;;;;2.67;2.00;;;;;11.24;68.29;100448.34;2109663;27;46482;-59
2022/11/24 04:38:04;;;;;;;;;0.00;0.00;;;;;11.24;68.36;100444.81;2105178;28;46732;-58
2022/11/24 04:39:05;;;;;;;;;1.00;1.00;;;;;11.25;68.84;100455.41;2108706;27;46574;-59
2022/11/24 04:40:08;;;;;;;;;3.33;1.67;;;;;11.24;68.35;100448.34;2100465;27;46671;-59
2022/11/24 04:41:08;;;;;;;;;1.50;1.25;;;;;11.25;68.44;100450.09;2103638;27;46947;-59
2022/11/24 04:42:09;;;;;;;;;1.67;1.67;;;;;11.24;68.39;100447.47;2101961;27;46771;-60
2022/11/24 04:43:09;;;;;;;;;3.00;3.00;;;;;11.26;68.44;100458.94;2104882;27;46700;-58
2022/11/24 04:44:10;;;;;;;;;0.67;0.67;;;;;11.26;68.44;100461.59;2106221;27;46271;-60
2022/11/24 04:45:10;;;;;;;;;2.33;1.00;;;;;11.26;68.46;100462.47;2102793;27;46831;-61
2022/11/24 04:46:10;;;;;;;;;1.00;1.00;;;;;11.27;68.45;100463.31;2104305;27;47032;-60
2022/11/24 04:47:17;;;;;;;;;2.00;2.00;;;;;11.28;68.18;100465.06;2102569;27;46413;-60